sensor_id;sensor_type;location;lat;lon;timestamp;pressure;altitude;pressure_sealevel;temperature;humidity
61014;BME280;46899;47.542;19.082;2023-02-18T00:01:22;100712.28;;;13.22;81.11
61014;BME280;46899;47.542;19.082;2023-02-18T00:04:25;100710.09;;;13.33;80.49
61014;BME280;46899;47.542;19.082;2023-02-18T00:07:28;100694.97;;;13.41;80.26
61014;BME280;46899;47.542;19.082;2023-02-18T00:10:35;100698.25;;;13.46;80.00
61014;BME280;46899;47.542;19.082;2023-02-18T00:13:38;100692.81;;;13.51;79.87
61014;BME280;46899;47.542;19.082;2023-02-18T00:16:41;100684.37;;;13.44;80.27
61014;BME280;46899;47.542;19.082;2023-02-18T00:19:43;100694.50;;;13.52;80.06
61014;BME280;46899;47.542;19.082;2023-02-18T00:22:46;100677.22;;;13.49;80.27
61014;BME280;46899;47.542;19.082;2023-02-18T00:25:49;100671.50;;;13.40;80.95
61014;BME280;46899;47.542;19.082;2023-02-18T00:28:51;100676.97;;;13.34;81.12
61014;BME280;46899;47.542;19.082;2023-02-18T00:31:55;100679.06;;;13.26;81.94
61014;BME280;46899;47.542;19.082;2023-02-18T00:34:58;100680.53;;;13.33;81.50
61014;BME280;46899;47.542;19.082;2023-02-18T00:38:00;100671.56;;;13.38;81.15
61014;BME280;46899;47.542;19.082;2023-02-18T00:41:03;100669.72;;;13.40;81.06
61014;BME280;46899;47.542;19.082;2023-02-18T00:44:06;100667.09;;;13.40;81.00
61014;BME280;46899;47.542;19.082;2023-02-18T00:47:08;100671.75;;;13.34;81.40
61014;BME280;46899;47.542;19.082;2023-02-18T00:50:11;100662.34;;;13.30;81.55
61014;BME280;46899;47.542;19.082;2023-02-18T00:53:13;100675.34;;;13.31;81.60
61014;BME280;46899;47.542;19.082;2023-02-18T00:56:16;100670.66;;;13.39;81.19
61014;BME280;46899;47.542;19.082;2023-02-18T00:59:18;100670.78;;;13.36;81.46
61014;BME280;46899;47.542;19.082;2023-02-18T01:02:21;100668.34;;;13.52;80.40
61014;BME280;46899;47.542;19.082;2023-02-18T01:05:23;100659.31;;;13.60;79.86
61014;BME280;46899;47.542;19.082;2023-02-18T01:08:26;100658.03;;;13.69;79.25
61014;BME280;46899;47.542;19.082;2023-02-18T01:11:29;100652.94;;;13.66;79.60
61014;BME280;46899;47.542;19.082;2023-02-18T01:14:31;100642.06;;;13.56;80.01
61014;BME280;46899;47.542;19.082;2023-02-18T01:17:34;100649.44;;;13.67;79.02
61014;BME280;46899;47.542;19.082;2023-02-18T01:20:40;100648.97;;;13.78;78.34
61014;BME280;46899;47.542;19.082;2023-02-18T01:23:43;100662.97;;;13.77;78.16
61014;BME280;46899;47.542;19.082;2023-02-18T01:26:50;100630.09;;;13.90;77.34
61014;BME280;46899;47.542;19.082;2023-02-18T01:29:53;100652.41;;;13.98;76.72
61014;BME280;46899;47.542;19.082;2023-02-18T01:32:57;100647.37;;;13.94;77.00
61014;BME280;46899;47.542;19.082;2023-02-18T01:36:00;100639.75;;;13.89;77.06
61014;BME280;46899;47.542;19.082;2023-02-18T01:39:04;100649.72;;;14.00;76.26
61014;BME280;46899;47.542;19.082;2023-02-18T01:42:14;100647.97;;;14.00;76.41
61014;BME280;46899;47.542;19.082;2023-02-18T01:48:59;100638.59;;;13.95;76.65
61014;BME280;46899;47.542;19.082;2023-02-18T01:52:03;100626.47;;;13.94;76.61
61014;BME280;46899;47.542;19.082;2023-02-18T01:55:08;100640.69;;;14.07;75.90
61014;BME280;46899;47.542;19.082;2023-02-18T01:58:10;100636.38;;;14.06;75.84
61014;BME280;46899;47.542;19.082;2023-02-18T02:01:14;100621.78;;;14.00;76.21
61014;BME280;46899;47.542;19.082;2023-02-18T02:04:17;100632.06;;;14.05;75.64
61014;BME280;46899;47.542;19.082;2023-02-18T02:07:20;100639.78;;;14.08;75.50
61014;BME280;46899;47.542;19.082;2023-02-18T02:10:27;100618.56;;;14.14;74.95
61014;BME280;46899;47.542;19.082;2023-02-18T02:14:19;100617.69;;;14.13;74.86
61014;BME280;46899;47.542;19.082;2023-02-18T02:17:16;100627.97;;;14.18;74.44
61014;BME280;46899;47.542;19.082;2023-02-18T02:20:31;100625.78;;;14.27;73.56
61014;BME280;46899;47.542;19.082;2023-02-18T02:39:40;100613.50;;;14.29;72.95
61014;BME280;46899;47.542;19.082;2023-02-18T02:46:10;100620.09;;;14.18;73.52
61014;BME280;46899;47.542;19.082;2023-02-18T02:52:23;100636.22;;;14.09;73.89
61014;BME280;46899;47.542;19.082;2023-02-18T02:55:27;100620.09;;;14.18;73.16
61014;BME280;46899;47.542;19.082;2023-02-18T02:58:30;100631.44;;;14.18;73.01
61014;BME280;46899;47.542;19.082;2023-02-18T03:01:56;100638.81;;;14.29;72.40
61014;BME280;46899;47.542;19.082;2023-02-18T03:11:19;100636.91;;;14.32;72.18
61014;BME280;46899;47.542;19.082;2023-02-18T03:21:05;100646.16;;;14.21;73.14
61014;BME280;46899;47.542;19.082;2023-02-18T03:24:11;100634.97;;;14.17;72.92
61014;BME280;46899;47.542;19.082;2023-02-18T03:27:17;100648.88;;;14.18;73.04
61014;BME280;46899;47.542;19.082;2023-02-18T03:30:28;100649.53;;;14.23;72.62
61014;BME280;46899;47.542;19.082;2023-02-18T03:33:35;100645.88;;;14.27;72.20
61014;BME280;46899;47.542;19.082;2023-02-18T03:36:39;100650.25;;;14.26;72.26
61014;BME280;46899;47.542;19.082;2023-02-18T03:39:44;100659.44;;;14.16;72.78
61014;BME280;46899;47.542;19.082;2023-02-18T03:42:48;100642.62;;;14.22;72.47
61014;BME280;46899;47.542;19.082;2023-02-18T03:45:51;100648.56;;;14.25;72.25
61014;BME280;46899;47.542;19.082;2023-02-18T03:48:53;100638.28;;;14.21;72.44
61014;BME280;46899;47.542;19.082;2023-02-18T03:51:56;100649.84;;;14.17;72.51
61014;BME280;46899;47.542;19.082;2023-02-18T03:54:59;100652.25;;;14.21;72.32
61014;BME280;46899;47.542;19.082;2023-02-18T03:58:01;100660.22;;;14.18;72.68
61014;BME280;46899;47.542;19.082;2023-02-18T04:01:04;100636.81;;;14.15;72.83
61014;BME280;46899;47.542;19.082;2023-02-18T04:04:07;100647.84;;;14.22;72.57
61014;BME280;46899;47.542;19.082;2023-02-18T04:07:10;100640.06;;;14.20;72.70
61014;BME280;46899;47.542;19.082;2023-02-18T04:10:12;100672.13;;;14.25;72.52
61014;BME280;46899;47.542;19.082;2023-02-18T04:13:15;100651.00;;;14.30;72.35
61014;BME280;46899;47.542;19.082;2023-02-18T04:16:19;100650.41;;;14.23;72.90
61014;BME280;46899;47.542;19.082;2023-02-18T04:19:21;100655.84;;;14.19;73.19
61014;BME280;46899;47.542;19.082;2023-02-18T04:22:24;100649.09;;;14.13;73.59
61014;BME280;46899;47.542;19.082;2023-02-18T04:25:26;100634.25;;;14.14;73.74
61014;BME280;46899;47.542;19.082;2023-02-18T04:28:29;100661.56;;;14.08;74.03
61014;BME280;46899;47.542;19.082;2023-02-18T04:31:32;100664.34;;;14.04;74.41
61014;BME280;46899;47.542;19.082;2023-02-18T04:34:35;100679.16;;;14.05;74.35
61014;BME280;46899;47.542;19.082;2023-02-18T04:37:37;100649.59;;;14.03;74.57
61014;BME280;46899;47.542;19.082;2023-02-18T04:40:40;100652.75;;;13.91;75.35
61014;BME280;46899;47.542;19.082;2023-02-18T04:43:42;100669.09;;;13.76;76.24
61014;BME280;46899;47.542;19.082;2023-02-18T04:46:45;100667.59;;;13.70;76.67
61014;BME280;46899;47.542;19.082;2023-02-18T04:49:47;100674.00;;;13.63;77.10
61014;BME280;46899;47.542;19.082;2023-02-18T04:52:50;100688.84;;;13.62;76.78
61014;BME280;46899;47.542;19.082;2023-02-18T04:55:53;100695.91;;;13.60;77.32
61014;BME280;46899;47.542;19.082;2023-02-18T04:58:56;100692.44;;;13.60;76.81
61014;BME280;46899;47.542;19.082;2023-02-18T05:01:58;100706.00;;;13.48;78.27
61014;BME280;46899;47.542;19.082;2023-02-18T05:05:01;100728.16;;;13.39;79.37
61014;BME280;46899;47.542;19.082;2023-02-18T05:08:03;100717.09;;;13.33;80.48
61014;BME280;46899;47.542;19.082;2023-02-18T05:11:06;100733.31;;;13.19;82.05
61014;BME280;46899;47.542;19.082;2023-02-18T05:14:09;100733.84;;;13.06;83.85
61014;BME280;46899;47.542;19.082;2023-02-18T05:17:12;100723.66;;;12.98;85.60
61014;BME280;46899;47.542;19.082;2023-02-18T05:20:15;100721.53;;;12.86;87.50
61014;BME280;46899;47.542;19.082;2023-02-18T05:23:17;100728.72;;;12.81;89.48
61014;BME280;46899;47.542;19.082;2023-02-18T05:26:22;100736.72;;;12.76;90.42
61014;BME280;46899;47.542;19.082;2023-02-18T05:29:25;100736.06;;;12.70;91.50
61014;BME280;46899;47.542;19.082;2023-02-18T05:32:27;100744.03;;;12.67;92.12
61014;BME280;46899;47.542;19.082;2023-02-18T05:35:30;100738.41;;;12.54;93.25
61014;BME280;46899;47.542;19.082;2023-02-18T05:38:32;100744.09;;;12.42;94.62
61014;BME280;46899;47.542;19.082;2023-02-18T05:41:36;100738.13;;;12.39;95.15
61014;BME280;46899;47.542;19.082;2023-02-18T05:44:38;100747.12;;;12.30;96.22
61014;BME280;46899;47.542;19.082;2023-02-18T05:47:41;100749.16;;;12.22;97.09
61014;BME280;46899;47.542;19.082;2023-02-18T05:50:43;100752.66;;;12.21;97.38
61014;BME280;46899;47.542;19.082;2023-02-18T05:53:46;100768.50;;;12.16;97.91
61014;BME280;46899;47.542;19.082;2023-02-18T05:56:48;100764.84;;;12.20;97.76
61014;BME280;46899;47.542;19.082;2023-02-18T05:59:51;100773.44;;;12.24;97.50
61014;BME280;46899;47.542;19.082;2023-02-18T06:02:53;100771.09;;;12.16;98.31
61014;BME280;46899;47.542;19.082;2023-02-18T06:05:56;100779.81;;;12.15;97.42
61014;BME280;46899;47.542;19.082;2023-02-18T06:08:59;100771.94;;;12.17;97.24
61014;BME280;46899;47.542;19.082;2023-02-18T06:12:02;100791.06;;;12.17;96.75
61014;BME280;46899;47.542;19.082;2023-02-18T06:15:04;100789.25;;;12.19;96.21
61014;BME280;46899;47.542;19.082;2023-02-18T06:18:07;100802.41;;;12.16;96.14
61014;BME280;46899;47.542;19.082;2023-02-18T06:21:09;100797.28;;;12.13;96.20
61014;BME280;46899;47.542;19.082;2023-02-18T06:24:12;100805.22;;;12.10;96.53
61014;BME280;46899;47.542;19.082;2023-02-18T06:27:15;100802.56;;;12.12;95.45
61014;BME280;46899;47.542;19.082;2023-02-18T06:30:19;100800.81;;;12.12;95.31
61014;BME280;46899;47.542;19.082;2023-02-18T06:33:21;100799.94;;;12.12;95.04
61014;BME280;46899;47.542;19.082;2023-02-18T06:36:24;100801.75;;;12.10;95.46
61014;BME280;46899;47.542;19.082;2023-02-18T06:39:26;100802.56;;;12.12;95.32
61014;BME280;46899;47.542;19.082;2023-02-18T06:42:29;100811.94;;;12.17;95.42
61014;BME280;46899;47.542;19.082;2023-02-18T06:45:31;100820.50;;;12.21;95.44
61014;BME280;46899;47.542;19.082;2023-02-18T06:48:34;100814.06;;;12.31;94.98
61014;BME280;46899;47.542;19.082;2023-02-18T06:51:37;100801.28;;;12.48;93.42
61014;BME280;46899;47.542;19.082;2023-02-18T06:54:39;100791.47;;;12.55;92.93
61014;BME280;46899;47.542;19.082;2023-02-18T06:57:42;100800.78;;;12.62;92.31
61014;BME280;46899;47.542;19.082;2023-02-18T07:00:45;100807.50;;;12.69;92.31
61014;BME280;46899;47.542;19.082;2023-02-18T07:03:47;100808.12;;;12.75;92.25
61014;BME280;46899;47.542;19.082;2023-02-18T07:06:51;100815.00;;;12.78;92.41
61014;BME280;46899;47.542;19.082;2023-02-18T07:09:54;100804.31;;;12.84;92.55
61014;BME280;46899;47.542;19.082;2023-02-18T07:12:57;100813.88;;;12.85;93.45
61014;BME280;46899;47.542;19.082;2023-02-18T07:15:59;100815.50;;;12.87;93.80
61014;BME280;46899;47.542;19.082;2023-02-18T07:19:02;100813.50;;;12.94;93.86
61014;BME280;46899;47.542;19.082;2023-02-18T07:22:04;100822.03;;;12.99;93.44
61014;BME280;46899;47.542;19.082;2023-02-18T07:25:07;100820.63;;;12.90;94.05
61014;BME280;46899;47.542;19.082;2023-02-18T07:28:09;100816.56;;;13.05;92.93
61014;BME280;46899;47.542;19.082;2023-02-18T07:31:12;100818.81;;;13.16;92.32
61014;BME280;46899;47.542;19.082;2023-02-18T07:34:15;100835.00;;;13.25;91.28
61014;BME280;46899;47.542;19.082;2023-02-18T07:37:18;100820.31;;;13.44;90.60
61014;BME280;46899;47.542;19.082;2023-02-18T07:40:21;100826.91;;;13.31;90.77
61014;BME280;46899;47.542;19.082;2023-02-18T07:43:23;100825.91;;;13.35;90.11
61014;BME280;46899;47.542;19.082;2023-02-18T07:46:26;100822.47;;;13.33;89.98
61014;BME280;46899;47.542;19.082;2023-02-18T07:49:28;100824.06;;;13.59;88.24
61014;BME280;46899;47.542;19.082;2023-02-18T07:52:31;100814.09;;;13.68;86.52
61014;BME280;46899;47.542;19.082;2023-02-18T07:55:34;100814.22;;;13.87;85.70
61014;BME280;46899;47.542;19.082;2023-02-18T07:58:51;100809.81;;;13.88;84.84
61014;BME280;46899;47.542;19.082;2023-02-18T08:01:55;100814.66;;;13.97;84.00
61014;BME280;46899;47.542;19.082;2023-02-18T08:04:57;100796.50;;;13.94;83.73
61014;BME280;46899;47.542;19.082;2023-02-18T08:08:00;100802.44;;;13.97;83.46
61014;BME280;46899;47.542;19.082;2023-02-18T08:11:03;100806.00;;;13.96;83.19
61014;BME280;46899;47.542;19.082;2023-02-18T08:14:20;100806.44;;;13.86;83.56
61014;BME280;46899;47.542;19.082;2023-02-18T08:17:22;100817.72;;;14.08;82.95
61014;BME280;46899;47.542;19.082;2023-02-18T08:20:25;100822.56;;;14.17;82.56
61014;BME280;46899;47.542;19.082;2023-02-18T08:23:29;100821.91;;;14.12;82.92
61014;BME280;46899;47.542;19.082;2023-02-18T08:26:31;100824.25;;;14.18;82.78
61014;BME280;46899;47.542;19.082;2023-02-18T08:29:34;100825.47;;;14.31;81.70
61014;BME280;46899;47.542;19.082;2023-02-18T08:32:36;100816.28;;;14.21;81.53
61014;BME280;46899;47.542;19.082;2023-02-18T08:35:39;100815.19;;;14.47;80.64
61014;BME280;46899;47.542;19.082;2023-02-18T08:38:41;100811.91;;;14.42;80.55
61014;BME280;46899;47.542;19.082;2023-02-18T08:41:44;100824.47;;;14.54;80.07
61014;BME280;46899;47.542;19.082;2023-02-18T08:44:46;100825.56;;;14.68;79.63
61014;BME280;46899;47.542;19.082;2023-02-18T08:47:49;100826.94;;;14.77;80.39
61014;BME280;46899;47.542;19.082;2023-02-18T08:51:13;100827.75;;;14.59;81.87
61014;BME280;46899;47.542;19.082;2023-02-18T08:54:16;100827.00;;;14.75;79.40
61014;BME280;46899;47.542;19.082;2023-02-18T08:57:19;100816.13;;;14.84;79.16
61014;BME280;46899;47.542;19.082;2023-02-18T09:00:21;100836.59;;;14.95;77.56
61014;BME280;46899;47.542;19.082;2023-02-18T09:03:24;100822.53;;;14.97;77.47
61014;BME280;46899;47.542;19.082;2023-02-18T09:06:28;100823.44;;;15.15;76.45
61014;BME280;46899;47.542;19.082;2023-02-18T09:09:31;100804.19;;;14.97;75.80
61014;BME280;46899;47.542;19.082;2023-02-18T09:12:33;100825.69;;;14.85;76.31
61014;BME280;46899;47.542;19.082;2023-02-18T09:15:36;100822.28;;;14.83;76.13
61014;BME280;46899;47.542;19.082;2023-02-18T09:18:39;100809.87;;;14.87;76.05
61014;BME280;46899;47.542;19.082;2023-02-18T09:21:42;100822.66;;;14.94;75.86
61014;BME280;46899;47.542;19.082;2023-02-18T09:24:45;100815.12;;;15.43;73.54
61014;BME280;46899;47.542;19.082;2023-02-18T09:27:47;100811.88;;;15.38;73.03
61014;BME280;46899;47.542;19.082;2023-02-18T09:30:50;100794.47;;;15.18;73.64
61014;BME280;46899;47.542;19.082;2023-02-18T09:33:55;100805.47;;;15.43;73.00
61014;BME280;46899;47.542;19.082;2023-02-18T09:36:58;100792.50;;;15.40;73.08
61014;BME280;46899;47.542;19.082;2023-02-18T09:40:00;100790.34;;;15.13;74.79
61014;BME280;46899;47.542;19.082;2023-02-18T09:43:03;100786.53;;;15.01;75.50
61014;BME280;46899;47.542;19.082;2023-02-18T09:46:06;100784.41;;;14.72;77.17
61014;BME280;46899;47.542;19.082;2023-02-18T09:49:16;100798.53;;;14.68;77.85
61014;BME280;46899;47.542;19.082;2023-02-18T09:52:29;100791.50;;;14.88;78.00
61014;BME280;46899;47.542;19.082;2023-02-18T09:55:39;100797.13;;;14.79;77.47
61014;BME280;46899;47.542;19.082;2023-02-18T09:58:42;100798.50;;;15.06;75.88
61014;BME280;46899;47.542;19.082;2023-02-18T10:01:46;100791.28;;;15.12;nan
61014;BME280;46899;47.542;19.082;2023-02-18T10:04:50;100798.63;;;15.22;75.50
61014;BME280;46899;47.542;19.082;2023-02-18T10:07:57;100813.03;;;15.32;75.11
61014;BME280;46899;47.542;19.082;2023-02-18T10:11:01;100806.69;;;15.55;74.25
61014;BME280;46899;47.542;19.082;2023-02-18T10:14:04;100801.62;;;15.52;72.76
61014;BME280;46899;47.542;19.082;2023-02-18T10:17:11;100790.06;;;15.56;72.43
61014;BME280;46899;47.542;19.082;2023-02-18T10:20:19;100790.16;;;15.71;71.80
61014;BME280;46899;47.542;19.082;2023-02-18T10:23:24;100788.16;;;15.94;70.55
61014;BME280;46899;47.542;19.082;2023-02-18T10:26:28;100797.66;;;16.13;70.04
61014;BME280;46899;47.542;19.082;2023-02-18T10:29:32;100789.41;;;15.87;69.91
61014;BME280;46899;47.542;19.082;2023-02-18T10:32:35;100792.38;;;15.43;70.45
61014;BME280;46899;47.542;19.082;2023-02-18T10:35:41;100797.31;;;15.14;71.82
61014;BME280;46899;47.542;19.082;2023-02-18T10:51:30;100785.56;;;15.94;71.26
61014;BME280;46899;47.542;19.082;2023-02-18T10:54:49;100781.88;;;16.48;69.64
61014;BME280;46899;47.542;19.082;2023-02-18T10:57:53;100778.66;;;16.60;69.33
61014;BME280;46899;47.542;19.082;2023-02-18T11:00:56;100788.09;;;15.95;72.14
61014;BME280;46899;47.542;19.082;2023-02-18T11:04:11;100786.28;;;15.43;74.56
61014;BME280;46899;47.542;19.082;2023-02-18T11:07:18;100781.56;;;15.51;74.73
61014;BME280;46899;47.542;19.082;2023-02-18T11:10:26;100789.34;;;15.34;75.64
61014;BME280;46899;47.542;19.082;2023-02-18T11:13:31;100776.97;;;14.81;78.30
61014;BME280;46899;47.542;19.082;2023-02-18T11:16:40;100771.31;;;14.52;79.76
61014;BME280;46899;47.542;19.082;2023-02-18T11:19:54;100762.16;;;14.62;78.32
61014;BME280;46899;47.542;19.082;2023-02-18T11:22:58;100746.53;;;14.97;76.88
61014;BME280;46899;47.542;19.082;2023-02-18T11:26:14;100750.00;;;15.34;75.44
61014;BME280;46899;47.542;19.082;2023-02-18T11:29:21;100743.94;;;15.86;73.22
61014;BME280;46899;47.542;19.082;2023-02-18T11:32:26;100736.97;;;15.85;72.45
61014;BME280;46899;47.542;19.082;2023-02-18T11:35:30;100730.97;;;15.83;73.19
61014;BME280;46899;47.542;19.082;2023-02-18T11:38:40;100727.09;;;15.56;74.83
61014;BME280;46899;47.542;19.082;2023-02-18T11:41:53;100715.06;;;15.52;75.36
61014;BME280;46899;47.542;19.082;2023-02-18T11:44:57;100722.22;;;15.48;75.94
61014;BME280;46899;47.542;19.082;2023-02-18T11:48:02;100715.47;;;15.61;75.53
61014;BME280;46899;47.542;19.082;2023-02-18T11:54:40;100699.94;;;16.41;72.31
61014;BME280;46899;47.542;19.082;2023-02-18T11:57:44;100691.88;;;16.92;69.60
61014;BME280;46899;47.542;19.082;2023-02-18T12:00:48;100681.25;;;16.78;69.44
61014;BME280;46899;47.542;19.082;2023-02-18T12:03:56;100679.91;;;16.71;70.35
61014;BME280;46899;47.542;19.082;2023-02-18T12:10:24;100655.59;;;16.83;69.60
61014;BME280;46899;47.542;19.082;2023-02-18T12:23:33;100631.91;;;16.68;70.17
61014;BME280;46899;47.542;19.082;2023-02-18T12:30:02;100616.56;;;16.76;69.61
61014;BME280;46899;47.542;19.082;2023-02-18T12:42:58;100593.72;;;16.62;66.45
61014;BME280;46899;47.542;19.082;2023-02-18T12:52:50;100606.66;;;16.81;63.58
61014;BME280;46899;47.542;19.082;2023-02-18T12:56:15;100594.25;;;16.98;61.40
61014;BME280;46899;47.542;19.082;2023-02-18T12:59:43;100596.47;;;16.75;61.61
61014;BME280;46899;47.542;19.082;2023-02-18T13:03:01;100584.97;;;16.62;62.50
61014;BME280;46899;47.542;19.082;2023-02-18T13:09:47;100567.75;;;16.40;63.49
61014;BME280;46899;47.542;19.082;2023-02-18T13:16:02;100568.03;;;16.52;62.52
61014;BME280;46899;47.542;19.082;2023-02-18T13:22:19;100557.06;;;16.75;61.52
61014;BME280;46899;47.542;19.082;2023-02-18T13:25:22;100547.16;;;16.64;61.88
61014;BME280;46899;47.542;19.082;2023-02-18T13:35:03;100541.53;;;16.86;61.03
61014;BME280;46899;47.542;19.082;2023-02-18T13:41:28;100543.50;;;17.12;59.62
61014;BME280;46899;47.542;19.082;2023-02-18T13:45:15;100526.97;;;17.24;59.63
61014;BME280;46899;47.542;19.082;2023-02-18T13:47:56;100527.72;;;17.12;58.90
61014;BME280;46899;47.542;19.082;2023-02-18T13:51:03;100532.03;;;17.13;59.33
61014;BME280;46899;47.542;19.082;2023-02-18T13:57:19;100503.78;;;17.17;58.90
61014;BME280;46899;47.542;19.082;2023-02-18T14:00:24;100506.13;;;17.21;58.70
61014;BME280;46899;47.542;19.082;2023-02-18T14:13:24;100485.56;;;17.14;59.11
61014;BME280;46899;47.542;19.082;2023-02-18T14:16:27;100479.69;;;16.94;60.77
61014;BME280;46899;47.542;19.082;2023-02-18T14:19:53;100472.41;;;16.70;62.28
61014;BME280;46899;47.542;19.082;2023-02-18T14:22:56;100475.16;;;16.53;63.70
61014;BME280;46899;47.542;19.082;2023-02-18T14:29:16;100461.94;;;16.23;65.19
61014;BME280;46899;47.542;19.082;2023-02-18T14:32:21;100448.91;;;16.21;66.39
61014;BME280;46899;47.542;19.082;2023-02-18T14:38:47;100455.34;;;16.31;65.62
61014;BME280;46899;47.542;19.082;2023-02-18T14:51:15;100437.19;;;16.42;65.21
61014;BME280;46899;47.542;19.082;2023-02-18T14:54:21;100428.06;;;16.34;66.11
61014;BME280;46899;47.542;19.082;2023-02-18T14:57:33;100420.78;;;16.23;66.79
61014;BME280;46899;47.542;19.082;2023-02-18T15:00:39;100416.81;;;16.16;67.71
61014;BME280;46899;47.542;19.082;2023-02-18T15:03:42;100413.25;;;16.02;68.27
61014;BME280;46899;47.542;19.082;2023-02-18T15:06:45;100419.13;;;15.91;68.71
61014;BME280;46899;47.542;19.082;2023-02-18T15:09:48;100417.69;;;15.70;70.08
61014;BME280;46899;47.542;19.082;2023-02-18T15:12:52;100406.00;;;15.44;71.25
61014;BME280;46899;47.542;19.082;2023-02-18T15:16:01;100404.00;;;15.32;72.30
61014;BME280;46899;47.542;19.082;2023-02-18T15:19:05;100402.78;;;15.22;72.96
61014;BME280;46899;47.542;19.082;2023-02-18T15:22:16;100396.78;;;15.20;73.37
61014;BME280;46899;47.542;19.082;2023-02-18T15:25:19;100395.00;;;15.21;73.63
61014;BME280;46899;47.542;19.082;2023-02-18T15:28:26;100398.41;;;15.23;73.79
61014;BME280;46899;47.542;19.082;2023-02-18T15:31:30;100403.37;;;14.94;71.32
61014;BME280;46899;47.542;19.082;2023-02-18T15:34:38;100400.31;;;14.86;69.57
61014;BME280;46899;47.542;19.082;2023-02-18T15:37:43;100398.88;;;14.64;69.12
61014;BME280;46899;47.542;19.082;2023-02-18T15:40:47;100402.94;;;14.35;69.68
61014;BME280;46899;47.542;19.082;2023-02-18T15:43:54;100403.66;;;14.03;69.60
61014;BME280;46899;47.542;19.082;2023-02-18T15:47:00;100389.56;;;13.69;71.02
61014;BME280;46899;47.542;19.082;2023-02-18T15:50:05;100380.44;;;13.41;70.92
61014;BME280;46899;47.542;19.082;2023-02-18T15:53:10;100373.72;;;13.17;72.18
61014;BME280;46899;47.542;19.082;2023-02-18T15:56:59;100377.41;;;12.92;73.42
61014;BME280;46899;47.542;19.082;2023-02-18T15:59:42;100374.34;;;12.63;74.44
61014;BME280;46899;47.542;19.082;2023-02-18T16:02:51;100383.06;;;12.43;75.95
61014;BME280;46899;47.542;19.082;2023-02-18T16:06:08;100383.59;;;12.29;76.28
61014;BME280;46899;47.542;19.082;2023-02-18T16:09:12;100380.06;;;12.10;77.62
61014;BME280;46899;47.542;19.082;2023-02-18T16:12:21;100378.84;;;11.97;79.05
61014;BME280;46899;47.542;19.082;2023-02-18T16:15:30;100379.47;;;11.82;79.60
61014;BME280;46899;47.542;19.082;2023-02-18T16:18:34;100385.87;;;11.74;80.08
61014;BME280;46899;47.542;19.082;2023-02-18T16:21:39;100382.34;;;11.53;81.55
61014;BME280;46899;47.542;19.082;2023-02-18T16:24:45;100380.94;;;11.44;81.67
61014;BME280;46899;47.542;19.082;2023-02-18T16:28:01;100375.22;;;11.35;82.72
61014;BME280;46899;47.542;19.082;2023-02-18T16:31:05;100374.28;;;11.36;82.88
61014;BME280;46899;47.542;19.082;2023-02-18T16:34:08;100369.69;;;11.21;84.51
61014;BME280;46899;47.542;19.082;2023-02-18T16:37:11;100364.78;;;11.12;84.50
61014;BME280;46899;47.542;19.082;2023-02-18T16:40:33;100366.84;;;11.04;85.30
61014;BME280;46899;47.542;19.082;2023-02-18T16:43:36;100368.75;;;10.98;85.02
61014;BME280;46899;47.542;19.082;2023-02-18T16:46:39;100365.53;;;10.92;84.98
61014;BME280;46899;47.542;19.082;2023-02-18T16:49:43;100364.91;;;10.85;85.41
61014;BME280;46899;47.542;19.082;2023-02-18T16:52:47;100367.00;;;10.76;86.08
61014;BME280;46899;47.542;19.082;2023-02-18T16:55:50;100373.56;;;10.61;86.84
61014;BME280;46899;47.542;19.082;2023-02-18T16:58:52;100366.97;;;10.51;87.46
61014;BME280;46899;47.542;19.082;2023-02-18T17:01:55;100376.00;;;10.41;87.33
61014;BME280;46899;47.542;19.082;2023-02-18T17:04:58;100381.19;;;10.41;88.14
61014;BME280;46899;47.542;19.082;2023-02-18T17:08:10;100380.81;;;10.27;89.02
61014;BME280;46899;47.542;19.082;2023-02-18T17:11:20;100384.66;;;10.15;89.92
61014;BME280;46899;47.542;19.082;2023-02-18T17:14:24;100385.50;;;10.16;90.14
61014;BME280;46899;47.542;19.082;2023-02-18T17:17:26;100397.41;;;10.23;89.74
61014;BME280;46899;47.542;19.082;2023-02-18T17:20:30;100388.56;;;10.28;88.92
61014;BME280;46899;47.542;19.082;2023-02-18T17:23:33;100381.12;;;10.18;89.45
61014;BME280;46899;47.542;19.082;2023-02-18T17:26:36;100396.91;;;10.10;89.79
61014;BME280;46899;47.542;19.082;2023-02-18T17:29:38;100389.19;;;10.09;90.32
61014;BME280;46899;47.542;19.082;2023-02-18T17:32:42;100392.78;;;10.05;90.54
61014;BME280;46899;47.542;19.082;2023-02-18T17:35:45;100388.84;;;9.93;91.44
61014;BME280;46899;47.542;19.082;2023-02-18T17:38:48;100386.25;;;9.92;90.98
61014;BME280;46899;47.542;19.082;2023-02-18T17:41:51;100380.13;;;9.94;91.70
61014;BME280;46899;47.542;19.082;2023-02-18T17:44:54;100380.38;;;9.87;91.98
61014;BME280;46899;47.542;19.082;2023-02-18T17:47:57;100386.13;;;9.69;92.62
61014;BME280;46899;47.542;19.082;2023-02-18T17:51:00;100379.91;;;9.46;93.95
61014;BME280;46899;47.542;19.082;2023-02-18T17:54:03;100381.00;;;9.39;95.35
61014;BME280;46899;47.542;19.082;2023-02-18T17:57:06;100370.03;;;9.57;94.58
61014;BME280;46899;47.542;19.082;2023-02-18T18:00:10;100367.00;;;9.71;93.77
61014;BME280;46899;47.542;19.082;2023-02-18T18:03:13;100361.25;;;9.61;94.43
61014;BME280;46899;47.542;19.082;2023-02-18T18:06:17;100361.38;;;9.58;95.06
61014;BME280;46899;47.542;19.082;2023-02-18T18:09:21;100369.37;;;9.79;93.66
61014;BME280;46899;47.542;19.082;2023-02-18T18:12:23;100377.09;;;9.82;93.18